createdAt,value
2023-04-26T00:01:38.463Z,101118.75
2023-04-26T00:03:40.276Z,101129.91
2023-04-26T00:05:42.050Z,101126.88
2023-04-26T00:07:43.728Z,101117.44
2023-04-26T00:09:45.305Z,101116.28
2023-04-26T00:11:46.868Z,101104.28
2023-04-26T00:13:48.468Z,101099.22
2023-04-26T00:15:51.801Z,101121.34
2023-04-26T00:17:53.413Z,101116.78
2023-04-26T00:19:55.238Z,101120.50
2023-04-26T00:21:56.780Z,101113.59
2023-04-26T00:23:58.454Z,101112.94
2023-04-26T00:26:00.013Z,101114.78
2023-04-26T00:28:01.598Z,101115.94
2023-04-26T00:30:03.803Z,101103.47
2023-04-26T00:32:06.969Z,101111.56
2023-04-26T00:34:08.664Z,101112.44
2023-04-26T00:36:10.339Z,101118.84
2023-04-26T00:38:11.989Z,101120.69
2023-04-26T00:40:14.325Z,101115.28
2023-04-26T00:42:16.074Z,101119.84
2023-04-26T00:44:17.836Z,101120.03
2023-04-26T00:46:20.591Z,101123.72
2023-04-26T00:48:23.595Z,101118.34
2023-04-26T00:50:25.548Z,101117.47
2023-04-26T00:52:28.015Z,101113.78
2023-04-26T00:54:29.693Z,101119.34
2023-04-26T00:56:32.639Z,101119.19
2023-04-26T00:58:34.295Z,101116.47
2023-04-26T01:00:36.102Z,101120.03
2023-04-26T01:02:38.199Z,101116.63
2023-04-26T01:04:41.615Z,101111.06
2023-04-26T01:06:44.105Z,101111.22
2023-04-26T01:08:45.855Z,101113.94
2023-04-26T01:10:48.737Z,101111.41
2023-04-26T01:12:50.485Z,101111.41
2023-04-26T01:14:53.044Z,101112.44
2023-04-26T01:16:55.187Z,101120.69
2023-04-26T01:18:56.959Z,101139.78
2023-04-26T01:21:01.470Z,101137.06
2023-04-26T01:23:05.909Z,101147.03
2023-04-26T01:25:11.317Z,101149.00
2023-04-26T01:27:12.998Z,101144.63
2023-04-26T01:29:16.438Z,101153.91
2023-04-26T01:31:18.065Z,101160.34
2023-04-26T01:33:19.673Z,101152.38
2023-04-26T01:35:21.698Z,101134.69
2023-04-26T01:37:23.232Z,101138.22
2023-04-26T01:39:26.789Z,101145.63
2023-04-26T01:41:28.427Z,101130.28
2023-04-26T01:43:30.182Z,101148.50
2023-04-26T01:45:31.758Z,101129.78
2023-04-26T01:47:33.303Z,101127.06
2023-04-26T01:49:35.125Z,101130.63
2023-04-26T01:51:36.754Z,101128.94
2023-04-26T01:53:38.435Z,101142.44
2023-04-26T01:55:41.419Z,101137.38
2023-04-26T01:57:42.998Z,101135.69
2023-04-26T01:59:44.748Z,101132.13
2023-04-26T02:01:46.404Z,101136.00
2023-04-26T02:03:48.098Z,101143.25
2023-04-26T02:05:49.620Z,101140.72
2023-04-26T02:07:51.382Z,101144.44
2023-04-26T02:09:52.946Z,101139.06
2023-04-26T02:11:55.853Z,101148.16
2023-04-26T02:13:57.717Z,101145.47
2023-04-26T02:15:59.543Z,101141.75
2023-04-26T02:18:04.192Z,101142.59
2023-04-26T02:20:06.887Z,101142.59
2023-04-26T02:22:08.562Z,101139.91
2023-04-26T02:24:10.500Z,101134.66
2023-04-26T02:26:12.169Z,101141.75
2023-04-26T02:28:15.682Z,101139.91
2023-04-26T02:30:17.287Z,101144.59
2023-04-26T02:32:18.953Z,101143.75
2023-04-26T02:34:20.530Z,101142.09
2023-04-26T02:36:22.221Z,101143.94
2023-04-26T02:38:24.359Z,101148.66
2023-04-26T02:40:26.051Z,101146.28
2023-04-26T02:42:30.865Z,101144.44
2023-04-26T02:44:33.849Z,101153.53
2023-04-26T02:46:35.845Z,101150.84
2023-04-26T02:48:37.361Z,101147.28
2023-04-26T02:50:38.945Z,101147.47
2023-04-26T02:52:40.456Z,101145.78
2023-04-26T02:54:42.062Z,101150.31
2023-04-26T02:56:43.558Z,101145.13
2023-04-26T02:58:45.164Z,101147.81
2023-04-26T03:00:48.479Z,101151.50
2023-04-26T03:02:50.281Z,101148.97
2023-04-26T03:04:51.891Z,101155.41
2023-04-26T03:06:53.455Z,101150.16
2023-04-26T03:08:55.459Z,101152.00
2023-04-26T03:10:57.199Z,101147.44
2023-04-26T03:12:58.803Z,101160.09
2023-04-26T03:15:00.562Z,101154.84
2023-04-26T03:17:03.552Z,101149.47
2023-04-26T03:19:05.162Z,101149.66
2023-04-26T03:21:06.736Z,101159.75
2023-04-26T03:23:08.439Z,101151.81
2023-04-26T03:25:10.394Z,101158.22
2023-04-26T03:27:12.033Z,101153.81
2023-04-26T03:29:13.708Z,101156.72
2023-04-26T03:31:15.247Z,101152.31
2023-04-26T03:33:18.492Z,101158.91
2023-04-26T03:35:20.178Z,101157.19
2023-04-26T03:37:21.750Z,101169.84
2023-04-26T03:39:23.384Z,101165.44
2023-04-26T03:41:24.958Z,101176.22
2023-04-26T03:43:26.502Z,101171.16
2023-04-26T03:45:28.149Z,101174.72
2023-04-26T03:47:29.731Z,101177.41
2023-04-26T03:49:32.838Z,101184.84
2023-04-26T03:51:34.404Z,101182.16
2023-04-26T03:53:35.947Z,101181.28
2023-04-26T03:55:37.676Z,101180.31
2023-04-26T03:57:39.342Z,101176.75
2023-04-26T03:59:40.954Z,101182.16
2023-04-26T04:01:42.562Z,101184.84
2023-04-26T04:03:44.330Z,101182.16
2023-04-26T04:05:47.576Z,101188.53
2023-04-26T04:07:49.159Z,101195.78
2023-04-26T04:09:50.887Z,101189.72
2023-04-26T04:11:52.570Z,101185.19
2023-04-26T04:13:54.283Z,101198.66
2023-04-26T04:15:56.187Z,101192.41
2023-04-26T04:17:57.748Z,101186.31
2023-04-26T04:20:01.395Z,101201.66
2023-04-26T04:22:04.410Z,101195.59
2023-04-26T04:24:06.479Z,101192.91
2023-04-26T04:26:08.016Z,101195.75
2023-04-26T04:28:09.549Z,101196.78
2023-04-26T04:30:11.847Z,101198.78
2023-04-26T04:32:13.376Z,101197.78
2023-04-26T04:34:15.100Z,101207.56
2023-04-26T04:36:16.799Z,101212.13
2023-04-26T04:38:19.851Z,101209.22
2023-04-26T04:40:21.406Z,101206.53
2023-04-26T04:42:22.928Z,101219.03
2023-04-26T04:44:24.505Z,101212.63
2023-04-26T04:46:26.285Z,101214.28
2023-04-26T04:48:30.596Z,101224.94
2023-04-26T04:50:32.338Z,101218.69
2023-04-26T04:52:34.117Z,101216.69
2023-04-26T04:54:37.043Z,101211.97
2023-04-26T04:56:38.648Z,101218.88
2023-04-26T04:58:40.287Z,101209.47
2023-04-26T05:00:41.896Z,101215.38
2023-04-26T05:02:43.552Z,101223.81
2023-04-26T05:04:45.355Z,101225.19
2023-04-26T05:06:47.492Z,101223.00
2023-04-26T05:08:49.049Z,101224.19
2023-04-26T05:10:51.982Z,101225.41
2023-04-26T05:12:53.629Z,101231.31
2023-04-26T05:14:55.303Z,101237.06
2023-04-26T05:16:56.900Z,101234.88
2023-04-26T05:18:58.493Z,101232.72
2023-04-26T05:21:00.054Z,101235.72
2023-04-26T05:23:01.631Z,101229.19
2023-04-26T05:25:03.705Z,101240.31
2023-04-26T05:27:06.684Z,101237.81
2023-04-26T05:29:08.299Z,101241.56
2023-04-26T05:31:11.703Z,101242.06
2023-04-26T05:33:13.537Z,101238.69
2023-04-26T05:35:15.398Z,101242.06
2023-04-26T05:37:17.059Z,101252.34
2023-04-26T05:39:18.690Z,101259.97
2023-04-26T05:41:20.217Z,101258.44
2023-04-26T05:43:23.198Z,101263.19
2023-04-26T05:45:24.870Z,101261.66
2023-04-26T05:47:26.574Z,101264.69
2023-04-26T05:49:28.214Z,101255.06
2023-04-26T05:51:29.879Z,101253.53
2023-04-26T05:53:31.538Z,101251.50
2023-04-26T05:55:33.098Z,101255.75
2023-04-26T05:57:34.888Z,101256.25
2023-04-26T05:59:37.904Z,101253.53
2023-04-26T06:01:39.482Z,101256.56
2023-04-26T06:03:41.509Z,101256.06
2023-04-26T06:05:43.330Z,101257.75
2023-04-26T06:07:44.887Z,101262.31
2023-04-26T06:09:46.450Z,101259.09
2023-04-26T06:11:47.972Z,101259.06
2023-04-26T06:13:49.658Z,101268.19
2023-04-26T06:15:53.649Z,101271.41
2023-04-26T06:17:55.499Z,101267.63
2023-04-26T06:19:57.139Z,101262.00
2023-04-26T06:21:58.808Z,101265.72
2023-04-26T06:24:00.437Z,101269.44
2023-04-26T06:26:02.108Z,101265.47
2023-04-26T06:28:04.379Z,101273.59
2023-04-26T06:30:07.170Z,101275.72
2023-04-26T06:32:10.133Z,101268.94
2023-04-26T06:34:11.729Z,101277.03
2023-04-26T06:36:13.442Z,101274.31
2023-04-26T06:38:15.290Z,101277.34
2023-04-26T06:40:17.256Z,101278.69
2023-04-26T06:42:18.793Z,101283.91
2023-04-26T06:44:20.388Z,101276.63
2023-04-26T06:46:21.999Z,101276.97
2023-04-26T06:48:25.093Z,101286.91
2023-04-26T06:50:26.625Z,101278.22
2023-04-26T06:52:28.180Z,101292.09
2023-04-26T06:54:30.349Z,101283.59
2023-04-26T06:56:31.902Z,101283.59
2023-04-26T06:58:33.577Z,101284.88
2023-04-26T07:00:35.297Z,101286.31
2023-04-26T07:02:37.129Z,101285.97
2023-04-26T07:04:40.489Z,101286.47
2023-04-26T07:06:42.394Z,101294.06
2023-04-26T07:08:43.979Z,101292.03
2023-04-26T07:10:45.613Z,101304.91
2023-04-26T07:12:47.477Z,101284.91
2023-04-26T07:14:49.152Z,101288.09
2023-04-26T07:16:50.644Z,101283.47
2023-04-26T07:18:52.262Z,101292.88
2023-04-26T07:20:55.220Z,101291.44
2023-04-26T07:22:56.875Z,101298.00
2023-04-26T07:24:58.536Z,101294.06
2023-04-26T07:27:00.211Z,101291.94
2023-04-26T07:29:02.012Z,101294.41
2023-04-26T07:31:03.671Z,101285.50
2023-04-26T07:33:05.355Z,101293.09
2023-04-26T07:35:08.163Z,101295.06
2023-04-26T07:37:11.115Z,101303.50
2023-04-26T07:39:12.715Z,101290.66
2023-04-26T07:41:14.351Z,101297.59
2023-04-26T07:43:15.897Z,101298.47
2023-04-26T07:45:17.613Z,101308.72
2023-04-26T07:47:19.153Z,101302.94
2023-04-26T07:49:20.790Z,101320.75
2023-04-26T07:51:22.318Z,101318.66
2023-04-26T07:53:25.207Z,101307.78
2023-04-26T07:55:27.140Z,101309.09
2023-04-26T07:57:28.742Z,101308.25
2023-04-26T07:59:30.462Z,101310.16
2023-04-26T08:01:32.048Z,101310.50
2023-04-26T08:03:33.820Z,101314.94
2023-04-26T08:05:35.984Z,101325.41
2023-04-26T08:07:38.031Z,101326.34
2023-04-26T08:09:40.969Z,101315.69
2023-04-26T08:11:42.588Z,101325.31
2023-04-26T08:13:44.462Z,101322.22
2023-04-26T08:15:45.958Z,101326.72
2023-04-26T08:17:47.544Z,101337.78
2023-04-26T08:19:49.072Z,101330.16
2023-04-26T08:21:50.627Z,101325.06
2023-04-26T08:23:52.640Z,101323.81
2023-04-26T08:25:55.801Z,101324.50
2023-04-26T08:27:57.601Z,101330.75
2023-04-26T08:29:59.369Z,101349.44
2023-04-26T08:32:00.924Z,101347.34
2023-04-26T08:34:02.681Z,101344.06
2023-04-26T08:36:04.887Z,101339.91
2023-04-26T08:38:06.472Z,101352.22
2023-04-26T08:40:09.197Z,101357.38
2023-04-26T08:42:17.659Z,101351.47
2023-04-26T08:44:22.257Z,101365.38
2023-04-26T08:46:26.794Z,101365.94
2023-04-26T08:48:34.297Z,101358.16
2023-04-26T08:50:37.132Z,101361.97
2023-04-26T08:52:39.971Z,101362.72
2023-04-26T08:54:41.852Z,101357.34
2023-04-26T08:56:44.329Z,101354.78
2023-04-26T08:58:47.341Z,101357.44
2023-04-26T09:00:50.699Z,101349.38
2023-04-26T09:02:53.583Z,101339.84
2023-04-26T09:04:55.599Z,101347.28
2023-04-26T09:07:00.814Z,101355.75
2023-04-26T09:09:03.416Z,101353.53
2023-04-26T09:11:05.377Z,101346.50
2023-04-26T09:13:06.895Z,101355.59
2023-04-26T09:15:11.307Z,101348.53
2023-04-26T09:17:26.352Z,101346.16
2023-04-26T09:19:35.465Z,101350.34
2023-04-26T09:21:42.759Z,101345.31
2023-04-26T09:23:57.925Z,101356.03
2023-04-26T09:26:18.939Z,101358.63
2023-04-26T09:28:22.086Z,101358.66
2023-04-26T09:30:26.050Z,101363.91
2023-04-26T09:32:27.660Z,101369.38
2023-04-26T09:34:29.635Z,101362.72
2023-04-26T09:36:31.221Z,101371.78
2023-04-26T09:38:42.953Z,101376.16
2023-04-26T09:40:46.095Z,101371.13
2023-04-26T09:42:56.905Z,101378.88
2023-04-26T09:45:06.057Z,101377.25
2023-04-26T09:47:10.805Z,101366.13
2023-04-26T09:49:12.462Z,101377.06
2023-04-26T09:51:13.962Z,101375.81
2023-04-26T09:53:26.368Z,101364.91
2023-04-26T09:55:34.868Z,101371.22
2023-04-26T09:57:43.309Z,101367.66
2023-04-26T09:59:46.813Z,101380.03
2023-04-26T10:01:48.444Z,101372.91
2023-04-26T10:03:52.365Z,101370.16
2023-04-26T10:05:54.297Z,101367.88
2023-04-26T10:07:55.910Z,101375.69
2023-04-26T10:09:58.385Z,101372.72
2023-04-26T10:12:00.563Z,101381.16
2023-04-26T10:14:02.534Z,101382.78
2023-04-26T10:16:04.960Z,101366.13
2023-04-26T10:18:06.660Z,101373.06
2023-04-26T10:20:12.530Z,101379.56
2023-04-26T10:22:20.631Z,101381.00
2023-04-26T10:24:23.332Z,101373.81
2023-04-26T10:26:46.981Z,101384.06
2023-04-26T10:28:59.989Z,101380.91
2023-04-26T10:31:03.949Z,101377.31
2023-04-26T10:33:14.543Z,101401.13
2023-04-26T10:35:17.617Z,101387.94
2023-04-26T10:37:19.277Z,101382.69
2023-04-26T10:39:21.334Z,101389.44
2023-04-26T10:41:34.776Z,101390.47
2023-04-26T10:43:36.370Z,101399.06
2023-04-26T10:45:39.010Z,101383.47
2023-04-26T10:47:40.731Z,101387.41
2023-04-26T10:49:46.335Z,101395.22
2023-04-26T10:52:10.830Z,101398.19
2023-04-26T10:54:12.748Z,101412.31
2023-04-26T10:56:53.588Z,101400.06
2023-04-26T10:59:22.510Z,101397.75
2023-04-26T11:01:30.351Z,101408.78
2023-04-26T11:03:32.383Z,101411.06
2023-04-26T11:05:52.851Z,101408.69
2023-04-26T11:08:05.497Z,101406.78
2023-04-26T11:10:09.104Z,101398.16
2023-04-26T11:12:12.655Z,101397.31
2023-04-26T11:14:14.494Z,101402.59
2023-04-26T11:16:17.851Z,101405.34
2023-04-26T11:18:20.624Z,101404.31
2023-04-26T11:20:22.444Z,101414.84
2023-04-26T11:22:24.065Z,101416.78
2023-04-26T11:24:27.773Z,101406.44
2023-04-26T11:30:04.172Z,101394.72
2023-04-26T11:32:06.318Z,101404.84
2023-04-26T11:34:08.374Z,101406.97
2023-04-26T11:36:09.882Z,101420.00
2023-04-26T11:38:11.584Z,101407.00
2023-04-26T11:40:16.512Z,101417.28
2023-04-26T11:42:18.081Z,101429.69
2023-04-26T11:44:20.163Z,101424.44
2023-04-26T11:46:22.127Z,101435.81
2023-04-26T11:48:24.990Z,101431.81
2023-04-26T11:50:27.537Z,101430.97
2023-04-26T11:52:29.866Z,101430.97
2023-04-26T11:54:33.078Z,101418.13
2023-04-26T11:56:36.162Z,101433.47
2023-04-26T11:58:37.923Z,101420.59
2023-04-26T12:00:57.536Z,101432.81
2023-04-26T12:03:05.466Z,101434.47
2023-04-26T12:05:08.808Z,101431.88
2023-04-26T12:07:10.542Z,101432.28
2023-04-26T12:09:12.702Z,101421.53
2023-04-26T12:11:17.198Z,101436.69
2023-04-26T12:13:20.850Z,101442.81
2023-04-26T12:15:28.634Z,101439.81
2023-04-26T12:17:30.419Z,101438.34
2023-04-26T12:19:33.585Z,101431.53
2023-04-26T12:21:40.966Z,101440.16
2023-04-26T12:23:42.597Z,101445.13
2023-04-26T12:25:53.433Z,101430.16
2023-04-26T12:27:55.259Z,101441.91
2023-04-26T12:29:58.202Z,101448.88
2023-04-26T12:32:03.577Z,101450.91
2023-04-26T12:34:05.289Z,101445.19
2023-04-26T12:36:08.895Z,101450.66
2023-04-26T12:38:11.078Z,101452.06
2023-04-26T12:40:13.525Z,101442.53
2023-04-26T12:42:15.089Z,101449.44
2023-04-26T12:44:16.875Z,101447.09
2023-04-26T12:46:20.590Z,101445.19
2023-04-26T12:48:22.527Z,101443.25
2023-04-26T12:50:24.399Z,101440.22
2023-04-26T12:52:25.985Z,101440.38
2023-04-26T12:54:27.528Z,101443.97
2023-04-26T12:56:29.736Z,101445.06
2023-04-26T12:58:31.472Z,101444.28
2023-04-26T13:00:33.203Z,101443.84
2023-04-26T13:02:36.599Z,101454.72
2023-04-26T13:04:41.232Z,101455.38
2023-04-26T13:06:43.531Z,101448.47
2023-04-26T13:08:45.176Z,101455.19
2023-04-26T13:10:46.734Z,101446.97
2023-04-26T13:12:48.501Z,101446.09
2023-04-26T13:14:50.040Z,101442.50
2023-04-26T13:16:51.782Z,101452.84
2023-04-26T13:18:54.762Z,101455.38
2023-04-26T13:20:56.323Z,101458.06
2023-04-26T13:22:57.842Z,101468.03
2023-04-26T13:24:59.531Z,101470.78
2023-04-26T13:27:01.367Z,101468.44
2023-04-26T13:29:03.020Z,101452.91
2023-04-26T13:31:04.826Z,101466.66
2023-04-26T13:33:06.627Z,101464.97
2023-04-26T13:35:09.743Z,101455.06
2023-04-26T13:37:11.933Z,101456.13
2023-04-26T13:39:13.545Z,101457.97
2023-04-26T13:41:15.181Z,101459.44
2023-04-26T13:43:16.797Z,101452.25
2023-04-26T13:45:19.508Z,101463.34
2023-04-26T13:47:21.238Z,101453.41
2023-04-26T13:49:24.188Z,101460.94
2023-04-26T13:51:27.288Z,101462.38
2023-04-26T13:53:28.951Z,101465.06
2023-04-26T13:55:30.731Z,101458.94
2023-04-26T13:57:32.362Z,101456.19
2023-04-26T13:59:33.978Z,101466.72
2023-04-26T14:01:35.703Z,101470.31
2023-04-26T14:03:37.588Z,101466.50
2023-04-26T14:05:39.267Z,101478.91
2023-04-26T14:07:42.201Z,101464.16
2023-04-26T14:09:44.087Z,101467.28
2023-04-26T14:11:49.296Z,101474.22
2023-04-26T14:13:55.686Z,101484.53
2023-04-26T14:15:57.405Z,101477.53
2023-04-26T14:17:59.011Z,101477.72
2023-04-26T14:20:00.708Z,101456.63
2023-04-26T14:22:02.256Z,101471.19
2023-04-26T14:24:05.989Z,101470.34
2023-04-26T14:26:11.542Z,101470.41
2023-04-26T14:28:15.878Z,101466.81
2023-04-26T14:30:21.270Z,101470.41
2023-04-26T14:32:23.157Z,101479.69
2023-04-26T14:34:24.911Z,101472.78
2023-04-26T14:36:26.550Z,101472.31
2023-04-26T14:38:29.419Z,101480.16
2023-04-26T14:40:32.447Z,101472.97
2023-04-26T14:42:37.331Z,101477.66
2023-04-26T14:44:38.985Z,101480.22
2023-04-26T14:46:40.874Z,101480.88
2023-04-26T14:48:42.499Z,101489.31
2023-04-26T14:50:44.045Z,101484.50
2023-04-26T14:52:48.764Z,101491.69
2023-04-26T14:54:53.617Z,101492.81
2023-04-26T14:56:56.587Z,101506.81
2023-04-26T14:58:58.327Z,101497.75
2023-04-26T15:00:59.976Z,101512.59
2023-04-26T15:03:01.901Z,101506.91
2023-04-26T15:05:04.182Z,101508.63
2023-04-26T15:07:17.807Z,101518.34
2023-04-26T15:09:27.103Z,101503.81
2023-04-26T15:11:33.516Z,101506.31
2023-04-26T15:13:36.530Z,101506.31
2023-04-26T15:15:38.181Z,101499.59
2023-04-26T15:17:39.836Z,101495.56
2023-04-26T15:19:46.298Z,101503.13
2023-04-26T15:21:50.809Z,101514.09
2023-04-26T15:23:56.539Z,101503.72
2023-04-26T15:26:02.406Z,101507.09
2023-04-26T15:28:04.168Z,101512.78
2023-04-26T15:30:08.395Z,101520.81
2023-04-26T15:32:13.308Z,101505.19
2023-04-26T15:34:14.957Z,101512.41
2023-04-26T15:36:19.954Z,101521.66
2023-04-26T15:38:21.648Z,101519.56
2023-04-26T15:40:23.265Z,101518.56
2023-04-26T15:42:24.942Z,101516.91
2023-04-26T15:44:26.595Z,101522.19
2023-04-26T15:46:29.608Z,101525.22
2023-04-26T15:48:31.260Z,101531.78
2023-04-26T15:50:32.858Z,101528.84
2023-04-26T15:52:36.908Z,101525.72
2023-04-26T15:54:40.010Z,101522.56
2023-04-26T15:56:41.656Z,101525.31
2023-04-26T15:58:43.689Z,101538.78
2023-04-26T16:00:45.339Z,101526.56
2023-04-26T16:02:48.454Z,101532.50
2023-04-26T16:04:50.297Z,101530.81
2023-04-26T16:06:52.057Z,101520.50
2023-04-26T16:08:53.616Z,101535.06
2023-04-26T16:10:59.051Z,101524.94
2023-04-26T16:13:00.649Z,101535.69
2023-04-26T16:15:02.339Z,101540.75
2023-04-26T16:17:03.858Z,101535.69
2023-04-26T16:19:06.953Z,101533.78
2023-04-26T16:21:08.695Z,101535.50
2023-04-26T16:23:10.334Z,101541.59
2023-04-26T16:25:11.944Z,101545.16
2023-04-26T16:27:13.495Z,101542.41
2023-04-26T16:29:15.112Z,101552.09
2023-04-26T16:31:16.729Z,101547.28
2023-04-26T16:33:20.428Z,101542.41
2023-04-26T16:35:25.014Z,101545.56
2023-04-26T16:37:26.608Z,101552.09
2023-04-26T16:39:28.118Z,101547.88
2023-04-26T16:41:29.726Z,101559.22
2023-04-26T16:43:31.941Z,101553.75
2023-04-26T16:45:33.526Z,101553.75
2023-04-26T16:47:35.208Z,101547.84
2023-04-26T16:49:36.769Z,101543.47
2023-04-26T16:51:39.776Z,101544.91
2023-04-26T16:53:41.379Z,101549.31
2023-04-26T16:55:43.214Z,101552.03
2023-04-26T16:57:44.730Z,101557.06
2023-04-26T16:59:46.400Z,101559.09
2023-04-26T17:01:48.204Z,101556.78
2023-04-26T17:03:49.969Z,101553.81
2023-04-26T17:05:51.674Z,101559.25
2023-04-26T17:07:54.548Z,101566.34
2023-04-26T17:09:56.362Z,101554.78
2023-04-26T17:11:57.985Z,101555.78
2023-04-26T17:13:59.642Z,101553.84
2023-04-26T17:16:01.204Z,101560.78
2023-04-26T17:18:04.305Z,101562.63
2023-04-26T17:20:07.793Z,101570.59
2023-04-26T17:22:10.059Z,101568.00
2023-04-26T17:24:13.135Z,101571.56
2023-04-26T17:26:14.834Z,101573.00
2023-04-26T17:28:16.568Z,101574.44
2023-04-26T17:30:18.911Z,101574.16
2023-04-26T17:32:20.627Z,101577.97
2023-04-26T17:34:22.203Z,101575.88
2023-04-26T17:36:23.836Z,101577.84
2023-04-26T17:38:25.424Z,101574.09
2023-04-26T17:40:28.465Z,101586.38
2023-04-26T17:42:30.062Z,101579.91
2023-04-26T17:44:31.687Z,101580.13
2023-04-26T17:46:33.317Z,101581.53
2023-04-26T17:48:34.995Z,101579.81
2023-04-26T17:50:36.643Z,101586.28
2023-04-26T17:52:38.606Z,101588.81
2023-04-26T17:54:40.508Z,101591.53
2023-04-26T17:56:43.671Z,101594.59
2023-04-26T17:58:45.280Z,101592.88
2023-04-26T18:00:48.713Z,101593.84
2023-04-26T18:02:50.574Z,101594.88
2023-04-26T18:04:53.458Z,101598.59
2023-04-26T18:06:55.328Z,101597.88
2023-04-26T18:08:56.994Z,101601.59
2023-04-26T18:10:58.681Z,101603.56
2023-04-26T18:13:01.594Z,101607.47
2023-04-26T18:15:03.372Z,101609.28
2023-04-26T18:17:05.047Z,101607.53
2023-04-26T18:19:10.684Z,101608.03
2023-04-26T18:21:12.359Z,101606.75
2023-04-26T18:23:13.878Z,101616.91
2023-04-26T18:25:15.616Z,101617.69
2023-04-26T18:27:17.304Z,101621.34
2023-04-26T18:29:20.296Z,101625.88
2023-04-26T18:31:21.982Z,101620.16
2023-04-26T18:33:23.792Z,101622.13
2023-04-26T18:35:25.624Z,101621.88
2023-04-26T18:37:27.188Z,101621.56
2023-04-26T18:39:28.778Z,101631.34
2023-04-26T18:41:30.382Z,101632.94
2023-04-26T18:43:32.030Z,101642.50
2023-04-26T18:45:34.927Z,101640.34
2023-04-26T18:47:36.644Z,101645.69
2023-04-26T18:49:38.119Z,101632.84
2023-04-26T18:51:39.756Z,101641.56
2023-04-26T18:53:41.417Z,101640.44
2023-04-26T18:55:43.022Z,101644.56
2023-04-26T18:57:44.594Z,101643.63
2023-04-26T18:59:47.579Z,101642.28
2023-04-26T19:01:50.523Z,101658.28
2023-04-26T19:03:55.689Z,101649.16
2023-04-26T19:05:57.377Z,101648.03
2023-04-26T19:07:59.100Z,101656.91
2023-04-26T19:10:00.857Z,101657.44
2023-04-26T19:12:04.596Z,101655.47
2023-04-26T19:14:06.248Z,101655.34
2023-04-26T19:16:08.315Z,101654.88
2023-04-26T19:18:11.361Z,101656.44
2023-04-26T19:20:13.029Z,101657.00
2023-04-26T19:22:14.775Z,101657.69
2023-04-26T19:24:16.502Z,101655.34
2023-04-26T19:26:18.159Z,101657.75
2023-04-26T19:28:19.822Z,101657.63
2023-04-26T19:30:21.421Z,101664.44
2023-04-26T19:32:23.200Z,101661.91
2023-04-26T19:34:26.210Z,101659.53
2023-04-26T19:36:27.867Z,101666.38
2023-04-26T19:38:29.827Z,101661.63
2023-04-26T19:40:31.391Z,101669.13
2023-04-26T19:42:32.993Z,101659.66
2023-04-26T19:44:34.602Z,101662.88
2023-04-26T19:46:36.284Z,101662.25
2023-04-26T19:48:37.883Z,101659.03
2023-04-26T19:50:41.488Z,101662.06
2023-04-26T19:52:43.605Z,101662.63
2023-04-26T19:54:45.297Z,101668.38
2023-04-26T19:56:46.936Z,101667.06
2023-04-26T19:58:48.684Z,101669.25
2023-04-26T20:00:50.702Z,101671.47
2023-04-26T20:02:52.404Z,101673.69
2023-04-26T20:04:54.097Z,101675.25
2023-04-26T20:06:57.036Z,101670.19
2023-04-26T20:08:58.894Z,101676.78
2023-04-26T20:11:02.259Z,101674.78
2023-04-26T20:13:04.228Z,101674.94
2023-04-26T20:15:06.913Z,101678.22
2023-04-26T20:17:08.605Z,101676.66
2023-04-26T20:19:10.415Z,101667.88
2023-04-26T20:21:12.171Z,101675.66
2023-04-26T20:23:15.053Z,101675.00
2023-04-26T20:25:16.646Z,101676.38
2023-04-26T20:27:18.263Z,101680.94
2023-04-26T20:29:19.958Z,101683.81
2023-04-26T20:31:21.579Z,101678.75
2023-04-26T20:33:23.228Z,101687.06
2023-04-26T20:35:24.820Z,101684.50
2023-04-26T20:37:26.365Z,101686.56
2023-04-26T20:39:29.307Z,101686.06
2023-04-26T20:41:30.905Z,101693.50
2023-04-26T20:43:32.429Z,101692.81
2023-04-26T20:45:33.931Z,101687.88
2023-04-26T20:47:35.795Z,101694.50
2023-04-26T20:49:37.438Z,101689.25
2023-04-26T20:51:38.990Z,101693.31
2023-04-26T20:53:40.758Z,101693.66
2023-04-26T20:55:43.711Z,101690.25
2023-04-26T20:57:45.281Z,101691.44
2023-04-26T20:59:46.937Z,101695.50
2023-04-26T21:01:48.563Z,101697.56
2023-04-26T21:03:50.496Z,101694.16
2023-04-26T21:05:52.143Z,101698.22
2023-04-26T21:07:54.041Z,101692.97
2023-04-26T21:09:55.543Z,101697.72
2023-04-26T21:11:58.469Z,101699.75
2023-04-26T21:14:00.027Z,101699.91
2023-04-26T21:16:01.698Z,101698.41
2023-04-26T21:18:03.776Z,101707.72
2023-04-26T21:20:06.167Z,101699.94
2023-04-26T21:22:07.757Z,101701.94
2023-04-26T21:24:09.287Z,101705.84
2023-04-26T21:26:11.289Z,101706.19
2023-04-26T21:28:18.235Z,101704.63
2023-04-26T21:30:20.017Z,101707.53
2023-04-26T21:32:21.630Z,101704.47
2023-04-26T21:34:23.397Z,101710.88
2023-04-26T21:36:25.071Z,101713.94
2023-04-26T21:38:26.890Z,101715.13
2023-04-26T21:40:28.467Z,101717.97
2023-04-26T21:42:31.196Z,101718.31
2023-04-26T21:44:34.156Z,101722.34
2023-04-26T21:46:35.812Z,101722.53
2023-04-26T21:48:37.621Z,101722.84
2023-04-26T21:50:39.239Z,101724.88
2023-04-26T21:52:40.818Z,101720.81
2023-04-26T21:54:42.469Z,101718.25
2023-04-26T21:56:44.031Z,101715.03
2023-04-26T21:58:45.594Z,101724.50
2023-04-26T22:00:48.964Z,101722.97
2023-04-26T22:02:50.778Z,101725.84
2023-04-26T22:04:53.930Z,101724.47
2023-04-26T22:06:55.612Z,101731.03
2023-04-26T22:08:57.138Z,101728.66
2023-04-26T22:10:58.781Z,101727.16
2023-04-26T22:13:00.606Z,101730.19
2023-04-26T22:15:02.402Z,101732.19
2023-04-26T22:17:05.340Z,101737.94
2023-04-26T22:19:06.881Z,101734.84
2023-04-26T22:21:08.561Z,101735.88
2023-04-26T22:23:10.195Z,101737.03
2023-04-26T22:25:11.737Z,101743.47
2023-04-26T22:27:13.352Z,101738.38
2023-04-26T22:29:14.950Z,101738.53
2023-04-26T22:31:16.632Z,101737.69
2023-04-26T22:33:19.555Z,101746.81
2023-04-26T22:35:21.575Z,101740.88
2023-04-26T22:37:23.416Z,101743.75
2023-04-26T22:39:25.059Z,101746.59
2023-04-26T22:41:26.700Z,101751.34
2023-04-26T22:43:28.434Z,101750.63
2023-04-26T22:45:30.007Z,101753.53
2023-04-26T22:47:31.635Z,101750.13
2023-04-26T22:49:34.746Z,101749.44
2023-04-26T22:51:36.295Z,101764.09
2023-04-26T22:53:37.902Z,101760.72
2023-04-26T22:55:39.447Z,101755.63
2023-04-26T22:57:41.126Z,101763.91
2023-04-26T22:59:42.694Z,101762.38
2023-04-26T23:01:44.371Z,101756.44
2023-04-26T23:03:46.109Z,101761.97
2023-04-26T23:05:49.062Z,101763.16
2023-04-26T23:07:50.639Z,101759.75
2023-04-26T23:09:52.268Z,101764.47
2023-04-26T23:11:53.987Z,101756.69
2023-04-26T23:13:55.565Z,101764.25
2023-04-26T23:15:57.323Z,101758.84
2023-04-26T23:17:59.034Z,101765.25
2023-04-26T23:20:00.855Z,101760.00
2023-04-26T23:22:03.783Z,101765.59
2023-04-26T23:24:06.120Z,101766.75